KBDU

Details ICAO KBDU (WBU)
Name BOULDER MUNI
Region United States
Timezone America/Denver (UTC-6.0)
Plans Departing 50
Arriving 61
Stats Elevation 5,288 ft / 1,612 m (AMSL)
Location 40.038700° -105.227000°
Runways 2
Magnetic Variation 8.219° E
Sunrise 2019-05-23 11:40:39 UTC / 2019-05-23 05:40:39 Local
Sunset 2019-05-24 02:17:32 UTC / 2019-05-23 20:17:32 Local
Advertisement - Login to hide

Runways

ID Width Length Bearing (true/mag) Surface Threshold Overrun Markings Lighting
08L 25 ft / 8 m 4,121 ft / 1,256 m 92.83° / 84.61° DIRT 200 ft / 61 m 0 ft / 0 m VISUAL
08R 75 ft / 23 m 4,121 ft / 1,256 m 92.81° / 84.59° ASPHALT 200 ft / 61 m 0 ft / 0 m APP EDGE THRESHOLD
26L 75 ft / 23 m 4,121 ft / 1,256 m 272.82° / 264.60° ASPHALT 200 ft / 61 m 0 ft / 0 m APP EDGE THRESHOLD
26R 25 ft / 8 m 4,121 ft / 1,256 m 272.84° / 264.62° DIRT 0 ft / 0 m 0 ft / 0 m VISUAL

Map

Weather


0- 5 10 15 20 25 30 35+ Temperature / °C

Clouds and Precipitation
Forecast for 2019-05-24 00:00 UTC. Updated 3 hours ago

Ground ~20,000 ft ~40,000 ft Winds

METAR

KBDU 240031Z AUTO 04003KT 10SM SCT045 BKN050 BKN095 07/04 A2991 RMK AO2

TAF

Not found

Frequencies

Recorded 118.82 MHz AWOS 3
Unicom 122.70 MHz CTAF/UNICOM
Warning: Do not use this data for real-world aviation or navigation. No guarantee of current accuracy is given.